Time;durP1;ratioP1;P1;durP2;ratioP2;P2;SDS_P1;SDS_P2;PMS_P1;PMS_P2;Temp;Humidity;BMP_temperature;BMP_pressure;BME280_temperature;BME280_humidity;BME280_pressure;Samples;Min_cycle;Max_cycle;Signal;HPM_P1;HPM_P2
2021/08/27 00:02:18;;;;;;;68.72;62.20;;;;;;;22.11;48.59;98474.53;5113996;28;20508;-50
2021/08/27 00:04:44;;;;;;;8.45;7.03;;;;;;;22.11;48.68;98457.69;5113898;28;20106;-50
2021/08/27 00:07:10;;;;;;;4.22;2.45;;;;;;;22.19;48.24;98466.97;5113885;28;20458;-50
2021/08/27 00:09:35;;;;;;;7.68;2.80;;;;;;;21.96;48.47;98466.66;5095549;28;20393;-50
2021/08/27 00:12:02;;;;;;;5.22;2.63;;;;;;;21.57;49.42;98464.81;5113849;28;20106;-50
2021/08/27 00:14:27;;;;;;;5.80;2.45;;;;;;;21.29;50.67;98468.97;5113346;28;20127;-50
2021/08/27 00:16:54;;;;;;;3.33;2.50;;;;;;;21.09;50.99;98456.53;5095390;28;20096;-50
2021/08/27 00:19:20;;;;;;;5.20;2.30;;;;;;;20.81;51.51;98466.00;5095350;28;20020;-50
2021/08/27 00:21:46;;;;;;;5.13;2.92;;;;;;;20.87;51.96;98456.91;5113494;28;20019;-50
2021/08/27 00:24:12;;;;;;;59.78;45.78;;;;;;;20.98;51.57;98462.97;5113488;28;20076;-50
2021/08/27 00:26:37;;;;;;;11.23;7.18;;;;;;;20.96;51.88;98465.91;5112229;28;20023;-50
2021/08/27 00:29:03;;;;;;;4.68;3.38;;;;;;;21.01;51.71;98467.78;5095160;28;20510;-50
2021/08/27 00:31:29;;;;;;;5.95;1.98;;;;;;;20.94;51.62;98466.16;5113408;28;20023;-50
2021/08/27 00:33:55;;;;;;;6.03;5.43;;;;;;;20.82;51.87;98465.69;5095096;28;20038;-50
2021/08/27 00:36:21;;;;;;;7.28;3.97;;;;;;;20.64;52.49;98472.41;5094981;28;20397;-51
2021/08/27 00:38:46;;;;;;;6.22;4.47;;;;;;;20.57;52.77;98484.44;5094924;28;20038;-50
2021/08/27 00:41:12;;;;;;;4.65;2.50;;;;;;;20.45;52.93;98479.38;5113244;28;20098;-50
2021/08/27 00:43:39;;;;;;;6.63;2.40;;;;;;;20.13;53.43;98477.81;5113042;28;20019;-50
2021/08/27 00:46:05;;;;;;;5.68;4.03;;;;;;;19.86;54.09;98480.75;5113151;28;20061;-50
2021/08/27 00:48:30;;;;;;;7.82;3.92;;;;;;;19.66;54.55;98474.34;5094750;28;20028;-50
2021/08/27 00:50:56;;;;;;;11.95;3.70;;;;;;;19.47;55.21;98478.56;5113056;28;20031;-50
2021/08/27 00:53:22;;;;;;;5.53;2.55;;;;;;;19.45;55.58;98472.69;5113016;28;20019;-50
2021/08/27 00:55:48;;;;;;;5.15;2.70;;;;;;;19.32;55.50;98472.13;5094681;28;20116;-50
2021/08/27 00:58:14;;;;;;;5.43;3.65;;;;;;;19.02;56.46;98474.72;5094676;28;20023;-50
2021/08/27 01:00:44;;;;;;;8.98;2.88;;;;;;;18.74;57.26;98472.16;5112861;28;20023;-50
2021/08/27 01:03:12;;;;;;;5.55;4.82;;;;;;;18.64;57.72;98477.44;5113144;28;20033;-50
2021/08/27 01:05:43;;;;;;;6.97;3.35;;;;;;;18.64;58.14;98468.66;5112635;28;20026;-50
2021/08/27 01:08:15;;;;;;;7.78;3.00;;;;;;;18.68;58.29;98477.72;5112778;28;20034;-50
2021/08/27 01:10:48;;;;;;;15.13;9.00;;;;;;;18.76;58.16;98470.03;5094383;28;20454;-49
2021/08/27 01:13:20;;;;;;;10.90;6.80;;;;;;;18.93;58.14;98467.25;5094174;28;20044;-50
2021/08/27 01:16:02;;;;;;;15.18;4.20;;;;;;;19.06;57.96;98468.59;5094343;28;20023;-50
2021/08/27 01:18:38;;;;;;;6.75;5.10;;;;;;;19.22;57.59;98466.78;5112637;28;20051;-50
2021/08/27 01:21:12;;;;;;;17.52;13.63;;;;;;;19.39;56.96;98471.09;5112664;28;20023;-50
2021/08/27 01:23:53;;;;;;;11.25;9.35;;;;;;;19.36;57.20;98462.56;5112517;28;20532;-51
2021/08/27 01:26:22;;;;;;;19.80;17.88;;;;;;;19.28;57.12;98455.09;5112505;28;20508;-50
2021/08/27 01:28:51;;;;;;;7.70;6.25;;;;;;;19.21;57.48;98453.75;5112431;28;20024;-51
2021/08/27 01:31:28;;;;;;;7.53;5.03;;;;;;;19.14;57.70;98459.31;5094106;28;20374;-51
2021/08/27 01:34:02;;;;;;;8.68;4.65;;;;;;;19.12;57.84;98458.78;5112425;28;20034;-51
2021/08/27 01:36:31;;;;;;;9.30;6.93;;;;;;;19.14;57.83;98469.97;5112368;28;20051;-50
2021/08/27 01:39:00;;;;;;;14.15;12.75;;;;;;;19.36;57.41;98467.88;5112375;28;20022;-50
2021/08/27 01:41:28;;;;;;;8.93;7.68;;;;;;;19.73;56.46;98469.56;5112238;28;20020;-51
2021/08/27 01:43:55;;;;;;;20.25;17.80;;;;;;;20.00;55.82;98457.03;5112233;28;20028;-51
2021/08/27 01:46:20;;;;;;;7.90;3.70;;;;;;;20.15;55.07;98462.38;5112253;28;20019;-50
2021/08/27 01:48:48;;;;;;;4.68;3.70;;;;;;;20.24;54.58;98467.94;5093916;28;20482;-50
2021/08/27 01:51:15;;;;;;;5.60;4.18;;;;;;;20.08;54.61;98460.00;5093924;28;20028;-50
2021/08/27 01:53:42;;;;;;;41.72;35.25;;;;;;;19.86;55.17;98470.91;5112165;28;20035;-50
2021/08/27 01:56:10;;;;;;;14.43;10.48;;;;;;;19.61;55.75;98466.31;5112101;28;20515;-51
2021/08/27 01:58:36;;;;;;;8.68;3.70;;;;;;;19.49;56.11;98477.22;5112032;28;20528;-50
2021/08/27 02:01:03;;;;;;;14.32;5.55;;;;;;;19.52;56.28;98471.38;5093827;28;20036;-50
2021/08/27 02:03:31;;;;;;;12.23;6.25;;;;;;;19.67;56.15;98472.47;5112068;28;20019;-50
2021/08/27 02:05:59;;;;;;;12.18;7.05;;;;;;;19.82;55.46;98477.84;5093722;28;20110;-50
2021/08/27 02:08:26;;;;;;;5.10;3.70;;;;;;;19.57;55.67;98481.22;5112027;28;20042;-50
2021/08/27 02:10:53;;;;;;;7.53;3.60;;;;;;;19.23;56.39;98479.03;5112350;28;20019;-50
2021/08/27 02:13:21;;;;;;;13.75;8.95;;;;;;;18.90;57.69;98490.88;5111706;28;20044;-50
2021/08/27 02:15:49;;;;;;;36.70;32.85;;;;;;;19.02;57.74;98482.69;5114587;28;20024;-50
2021/08/27 02:18:15;;;;;;;9.27;3.78;;;;;;;19.36;57.23;98475.09;5097703;28;20024;-49
2021/08/27 02:20:41;;;;;;;4.95;3.38;;;;;;;19.45;56.18;98476.16;5097691;28;20038;-49
2021/08/27 02:23:09;;;;;;;7.38;2.60;;;;;;;19.29;56.57;98487.81;5097604;28;20548;-50
2021/08/27 02:25:36;;;;;;;9.00;3.40;;;;;;;19.16;56.62;98481.16;5115820;28;20051;-50
2021/08/27 02:28:03;;;;;;;14.15;11.02;;;;;;;19.18;56.81;98484.34;5097546;28;20066;-50
2021/08/27 02:30:31;;;;;;;6.07;3.30;;;;;;;19.21;56.84;98481.16;5097469;28;20020;-50
2021/08/27 02:33:07;;;;;;;5.30;3.60;;;;;;;19.19;56.67;98480.59;5097424;28;20020;-50
2021/08/27 02:35:34;;;;;;;11.52;6.18;;;;;;;19.03;56.72;98485.06;5115698;28;20062;-50
2021/08/27 02:38:01;;;;;;;10.98;4.38;;;;;;;18.96;56.96;98490.63;5097335;28;20520;-50
2021/08/27 02:40:27;;;;;;;12.98;7.20;;;;;;;19.02;57.16;98491.47;5097210;28;20023;-50
2021/08/27 02:42:52;;;;;;;7.80;3.22;;;;;;;19.33;56.50;98492.34;5115552;28;20019;-50
2021/08/27 02:45:18;;;;;;;8.68;4.90;;;;;;;19.59;55.52;98495.06;5115451;28;20019;-50
2021/08/27 02:47:44;;;;;;;19.88;12.60;;;;;;;19.48;55.30;98496.13;5097197;28;20489;-50
2021/08/27 02:50:13;;;;;;;9.70;4.22;;;;;;;19.45;55.70;98504.63;5115450;28;20032;-51
2021/08/27 02:52:56;;;;;;;42.88;38.97;;;;;;;19.66;55.18;98497.47;5115380;28;20026;-50
2021/08/27 02:55:34;;;;;;;9.05;7.40;;;;;;;19.65;54.92;98498.56;5115393;28;20115;-50
2021/08/27 02:58:14;;;;;;;9.05;4.60;;;;;;;19.55;55.12;98502.00;5096995;28;20111;-50
2021/08/27 03:00:54;;;;;;;13.43;5.18;;;;;;;19.65;54.73;98509.19;5096932;28;20034;-50
2021/08/27 03:03:23;;;;;;;9.90;3.42;;;;;;;19.59;54.29;98504.94;5115253;28;20016;-50
2021/08/27 03:05:51;;;;;;;10.45;4.22;;;;;;;19.26;54.91;98507.00;5115079;28;20049;-50
2021/08/27 03:08:22;;;;;;;16.67;7.78;;;;;;;19.24;55.26;98507.25;5115022;28;20397;-50
2021/08/27 03:11:12;;;;;;;9.18;3.10;;;;;;;19.34;54.83;98501.94;5115100;28;20032;-50
2021/08/27 03:13:59;;;;;;;9.88;3.60;;;;;;;19.13;54.71;98500.28;5114828;28;20539;-50
2021/08/27 03:16:28;;;;;;;8.05;6.60;;;;;;;19.04;55.19;98507.97;5096657;28;20051;-50
2021/08/27 03:19:04;;;;;;;23.15;11.05;;;;;;;18.98;55.39;98503.69;5114955;28;20019;-50
2021/08/27 03:21:41;;;;;;;24.75;12.05;;;;;;;19.00;55.36;98501.56;5096507;28;20465;-50
2021/08/27 03:24:16;;;;;;;20.65;5.07;;;;;;;19.08;55.05;98508.25;5113485;28;20424;-51
2021/08/27 03:26:44;;;;;;;15.68;4.60;;;;;;;19.12;54.64;98510.13;5095329;28;20031;-50
2021/08/27 03:29:16;;;;;;;23.67;4.63;;;;;;;19.02;54.32;98512.75;5114770;28;20028;-50
2021/08/27 03:31:42;;;;;;;17.00;4.25;;;;;;;18.82;54.78;98516.09;5114929;28;20028;-50
2021/08/27 03:34:09;;;;;;;25.55;5.10;;;;;;;18.80;54.97;98507.59;5096626;28;20086;-50
2021/08/27 03:36:35;;;;;;;20.52;6.70;;;;;;;18.81;54.79;98509.19;5114582;28;20019;-50
2021/08/27 03:39:04;;;;;;;15.75;5.07;;;;;;;18.65;54.96;98504.81;5114556;28;20027;-51
2021/08/27 03:41:32;;;;;;;14.73;4.68;;;;;;;18.51;55.48;98513.25;5114452;28;20509;-51
2021/08/27 03:44:00;;;;;;;17.38;5.43;;;;;;;18.62;54.91;98510.66;5114394;28;20508;-50
2021/08/27 03:46:26;;;;;;;12.82;4.18;;;;;;;18.49;55.06;98511.88;5096014;28;20012;-50
2021/08/27 03:48:54;;;;;;;8.32;4.95;;;;;;;18.28;55.40;98510.97;5096002;28;20019;-50
2021/08/27 03:51:20;;;;;;;15.38;4.43;;;;;;;18.02;55.95;98516.06;5114260;28;20015;-50
2021/08/27 03:53:47;;;;;;;14.02;5.13;;;;;;;17.86;56.40;98515.13;5114253;28;20024;-50
2021/08/27 03:56:14;;;;;;;10.20;5.28;;;;;;;17.73;56.77;98511.00;5095902;28;20031;-50
2021/08/27 03:58:42;;;;;;;13.43;4.80;;;;;;;17.66;57.10;98509.59;5114108;28;20027;-50
2021/08/27 04:01:08;;;;;;;15.05;4.70;;;;;;;17.61;57.27;98507.72;5114078;28;20027;-51
2021/08/27 04:03:35;;;;;;;14.10;5.32;;;;;;;17.69;57.45;98512.56;5114012;28;20073;-50
2021/08/27 04:06:07;;;;;;;26.33;23.02;;;;;;;17.83;56.79;98514.78;5095632;28;20051;-51
2021/08/27 04:08:38;;;;;;;20.25;5.55;;;;;;;17.83;56.22;98518.31;5113847;28;20027;-50
2021/08/27 04:11:05;;;;;;;9.82;4.50;;;;;;;17.73;56.62;98520.84;5113937;28;20477;-50
2021/08/27 04:13:30;;;;;;;16.40;5.03;;;;;;;17.63;56.72;98516.22;5113590;28;20044;-50
2021/08/27 04:15:56;;;;;;;12.60;5.35;;;;;;;17.54;56.84;98520.34;5095469;28;20023;-50
2021/08/27 04:18:22;;;;;;;17.30;9.10;;;;;;;17.41;57.00;98523.41;5095317;28;20023;-50
2021/08/27 04:20:48;;;;;;;18.55;16.40;;;;;;;17.35;57.25;98530.50;5113930;28;20030;-50
2021/08/27 04:23:14;;;;;;;89.93;81.93;;;;;;;17.30;57.32;98531.25;5113635;28;20519;-50
2021/08/27 04:25:40;;;;;;;128.15;115.63;;;;;;;17.29;57.45;98534.94;5113516;28;20011;-50
2021/08/27 04:28:06;;;;;;;20.70;12.57;;;;;;;17.41;57.18;98539.34;5113621;28;20476;-50
2021/08/27 04:30:33;;;;;;;14.13;5.10;;;;;;;17.40;57.08;98540.38;5112146;28;20030;-51
2021/08/27 04:32:58;;;;;;;13.80;8.85;;;;;;;17.36;57.11;98532.09;5095171;28;20570;-51
2021/08/27 04:35:24;;;;;;;15.65;7.28;;;;;;;17.33;56.98;98536.06;5113332;28;20031;-50
2021/08/27 04:37:50;;;;;;;14.95;5.18;;;;;;;17.30;56.80;98536.53;5094806;28;20056;-50
2021/08/27 04:40:16;;;;;;;12.45;4.00;;;;;;;17.22;56.85;98534.31;5113265;28;20104;-50
2021/08/27 04:42:41;;;;;;;9.43;4.70;;;;;;;17.25;56.90;98535.72;5094911;28;20088;-50
2021/08/27 04:45:08;;;;;;;55.92;39.90;;;;;;;17.35;56.73;98533.16;5113693;28;20024;-50
2021/08/27 04:47:34;;;;;;;15.80;9.57;;;;;;;17.50;56.10;98528.00;5111891;28;20064;-50
2021/08/27 04:49:59;;;;;;;16.20;4.15;;;;;;;17.61;55.50;98534.25;5094792;28;20019;-50
2021/08/27 04:52:25;;;;;;;13.05;4.80;;;;;;;17.32;56.25;98536.31;5113064;28;20034;-50
2021/08/27 04:54:50;;;;;;;16.58;4.45;;;;;;;17.28;56.01;98543.16;5094726;28;20024;-50
2021/08/27 04:57:16;;;;;;;10.85;4.78;;;;;;;17.18;56.23;98535.88;5094651;28;20035;-50
2021/08/27 04:59:46;;;;;;;10.93;4.18;;;;;;;17.17;56.43;98537.72;5094648;28;20026;-50
2021/08/27 05:02:13;;;;;;;15.48;5.93;;;;;;;16.99;56.53;98542.53;5094566;28;20042;-49
2021/08/27 05:04:38;;;;;;;20.08;5.72;;;;;;;16.79;56.85;98543.84;5094487;28;20404;-50
2021/08/27 05:07:04;;;;;;;14.45;5.18;;;;;;;16.64;57.60;98536.47;5112797;28;20019;-50
2021/08/27 05:09:30;;;;;;;9.35;4.03;;;;;;;16.65;57.54;98543.38;5112716;28;20111;-50
2021/08/27 05:11:56;;;;;;;24.42;4.72;;;;;;;16.67;57.64;98540.47;5094417;28;20024;-50
2021/08/27 05:14:22;;;;;;;11.32;4.40;;;;;;;16.76;57.38;98534.53;5112398;28;20040;-50
2021/08/27 05:16:47;;;;;;;22.27;6.75;;;;;;;17.13;57.13;98526.00;5112633;28;20023;-50
2021/08/27 05:19:13;;;;;;;19.83;7.65;;;;;;;17.68;55.62;98534.03;5094283;28;20069;-50
2021/08/27 05:21:39;;;;;;;14.05;4.40;;;;;;;18.14;53.89;98534.50;5094321;28;20027;-50
2021/08/27 05:24:05;;;;;;;22.48;5.22;;;;;;;18.28;53.31;98533.00;5094182;28;20055;-50
2021/08/27 05:26:31;;;;;;;37.13;27.30;;;;;;;18.62;52.67;98537.22;5112454;28;20030;-50
2021/08/27 05:28:58;;;;;;;880.70;661.00;;;;;;;19.23;51.45;98532.22;5112466;28;20440;-50
2021/08/27 05:31:24;;;;;;;630.30;560.22;;;;;;;19.88;49.99;98531.88;5094117;28;20031;-50
2021/08/27 05:33:50;;;;;;;960.33;704.90;;;;;;;20.37;48.70;98531.38;5094263;28;20031;-50
2021/08/27 05:36:16;;;;;;;406.02;323.90;;;;;;;20.78;47.60;98528.66;5094235;28;20485;-50
2021/08/27 05:38:41;;;;;;;402.20;358.63;;;;;;;21.11;46.78;98532.56;5094225;28;20030;-50
2021/08/27 05:41:07;;;;;;;86.88;53.25;;;;;;;21.49;45.74;98532.13;5094017;28;20016;-50
2021/08/27 05:43:33;;;;;;;79.88;53.78;;;;;;;21.93;44.53;98536.66;5077184;28;20027;-50
2021/08/27 05:45:59;;;;;;;54.63;32.70;;;;;;;22.27;43.99;98523.31;5110858;28;20055;-50
2021/08/27 05:48:25;;;;;;;28.13;7.90;;;;;;;22.73;42.64;98540.81;5093964;28;20059;-50
2021/08/27 05:50:51;;;;;;;22.75;10.10;;;;;;;23.02;41.80;98534.63;5093242;28;20028;-50
2021/08/27 05:53:17;;;;;;;24.73;7.03;;;;;;;23.08;41.90;98545.03;5093922;28;20545;-50
2021/08/27 05:55:42;;;;;;;24.42;15.13;;;;;;;23.06;41.75;98543.69;5093820;28;20493;-50
2021/08/27 05:58:08;;;;;;;17.15;4.82;;;;;;;22.90;41.89;98538.50;5112149;28;20028;-50
2021/08/27 06:00:34;;;;;;;19.38;5.85;;;;;;;22.81;42.05;98542.88;5093844;28;20057;-51
2021/08/27 06:02:59;;;;;;;13.52;5.35;;;;;;;22.87;41.86;98538.25;5093859;28;20484;-50
2021/08/27 06:05:25;;;;;;;260.80;229.10;;;;;;;23.08;41.48;98549.56;5093614;28;20016;-51
2021/08/27 06:07:51;;;;;;;38.83;27.27;;;;;;;23.29;41.23;98544.75;5111972;28;20027;-51
2021/08/27 06:10:17;;;;;;;280.17;250.55;;;;;;;23.71;40.31;98538.56;5111923;28;20030;-49
2021/08/27 06:12:43;;;;;;;71.53;37.88;;;;;;;24.25;39.07;98543.69;5110449;28;20039;-51
2021/08/27 06:15:10;;;;;;;14.00;7.95;;;;;;;24.71;37.95;98540.22;5111990;28;20027;-51
2021/08/27 06:17:36;;;;;;;70.50;63.00;;;;;;;25.18;37.05;98535.53;5093696;28;20016;-50
2021/08/27 06:20:01;;;;;;;19.27;8.63;;;;;;;25.65;36.33;98543.44;5111886;28;20034;-50
2021/08/27 06:22:27;;;;;;;18.48;7.75;;;;;;;26.06;35.56;98548.69;5093641;28;20038;-50
2021/08/27 06:24:53;;;;;;;11.27;5.50;;;;;;;26.61;34.71;98547.63;5111735;28;20038;-50
2021/08/27 06:27:19;;;;;;;13.55;4.57;;;;;;;26.97;33.67;98545.88;5111828;28;20024;-51
2021/08/27 06:29:45;;;;;;;14.15;4.88;;;;;;;27.30;33.11;98548.97;5093624;28;20499;-50
2021/08/27 06:32:11;;;;;;;9.07;4.05;;;;;;;27.41;33.11;98544.88;5093511;28;20102;-50
2021/08/27 06:34:36;;;;;;;13.60;4.80;;;;;;;27.54;32.64;98543.16;5093552;28;20118;-50
2021/08/27 06:37:02;;;;;;;12.85;4.28;;;;;;;27.85;32.25;98550.31;5093514;28;20058;-51
2021/08/27 06:39:28;;;;;;;17.65;6.38;;;;;;;28.08;32.25;98550.94;5093492;28;20027;-50
2021/08/27 06:41:54;;;;;;;15.27;3.97;;;;;;;28.31;31.13;98542.66;5093436;28;20654;-51
2021/08/27 06:44:20;;;;;;;13.73;5.30;;;;;;;27.71;32.11;98550.47;5093373;28;20115;-51
2021/08/27 06:46:46;;;;;;;13.27;5.32;;;;;;;27.23;33.18;98548.63;5111683;28;20026;-50
2021/08/27 06:49:12;;;;;;;27.77;22.50;;;;;;;26.91;33.43;98547.91;5111695;28;20514;-51
2021/08/27 06:51:40;;;;;;;21.55;6.72;;;;;;;27.10;33.43;98544.94;5111571;28;20106;-50
2021/08/27 06:54:06;;;;;;;16.50;3.83;;;;;;;26.94;34.10;98547.25;5111637;28;20020;-51
2021/08/27 06:56:32;;;;;;;8.90;4.57;;;;;;;26.80;33.84;98542.00;5093250;28;20034;-50
2021/08/27 06:58:58;;;;;;;26.67;23.40;;;;;;;26.85;33.51;98543.75;5093317;28;20036;-51
2021/08/27 07:01:25;;;;;;;15.63;6.28;;;;;;;27.40;33.06;98540.59;5113340;28;20099;-51
2021/08/27 07:03:51;;;;;;;14.18;8.98;;;;;;;27.98;32.06;98535.09;5115144;28;20055;-50
2021/08/27 07:06:18;;;;;;;8.38;3.97;;;;;;;28.90;30.81;98536.59;5115178;28;20031;-50
2021/08/27 07:08:44;;;;;;;750.80;674.15;;;;;;;29.54;29.50;98536.41;5115146;28;20099;-50
2021/08/27 07:11:11;;;;;;;930.13;557.90;;;;;;;29.75;29.10;98538.34;5113695;28;20476;-50
2021/08/27 07:13:37;;;;;;;252.77;174.98;;;;;;;30.06;28.78;98538.69;5114676;28;20055;-50
2021/08/27 07:16:04;;;;;;;103.90;87.65;;;;;;;30.06;28.62;98533.28;5113612;28;20039;-50
2021/08/27 07:18:30;;;;;;;43.80;23.80;;;;;;;30.30;28.79;98530.97;5096735;28;20045;-50
2021/08/27 07:20:56;;;;;;;43.42;23.25;;;;;;;30.90;27.73;98540.34;5114868;28;20099;-50
2021/08/27 07:23:23;;;;;;;58.70;30.58;;;;;;;31.28;26.94;98532.97;5114836;28;20023;-50
2021/08/27 07:25:50;;;;;;;35.95;17.38;;;;;;;31.60;26.35;98544.78;5114645;28;20031;-50
2021/08/27 07:28:16;;;;;;;36.53;12.98;;;;;;;31.68;26.62;98543.09;5114761;28;20023;-50
2021/08/27 07:30:42;;;;;;;25.13;15.80;;;;;;;31.70;26.33;98538.88;5114685;28;20024;-51
2021/08/27 07:33:08;;;;;;;19.50;6.88;;;;;;;32.10;26.10;98540.00;5114576;28;20028;-51
2021/08/27 07:35:34;;;;;;;21.33;8.63;;;;;;;32.49;24.86;98545.66;5096349;28;20058;-50
2021/08/27 07:38:00;;;;;;;28.95;12.95;;;;;;;32.79;24.85;98538.66;5096254;28;20038;-51
2021/08/27 07:40:26;;;;;;;33.13;9.60;;;;;;;33.01;24.57;98550.03;5114470;28;20027;-51
2021/08/27 07:42:52;;;;;;;26.15;5.78;;;;;;;33.16;24.26;98537.59;5114369;28;20020;-51
2021/08/27 07:45:18;;;;;;;35.33;23.38;;;;;;;33.69;24.09;98543.41;5114507;28;20023;-50
2021/08/27 07:47:44;;;;;;;19.35;7.70;;;;;;;33.78;23.40;98535.81;5114400;28;20020;-50
2021/08/27 07:50:12;;;;;;;24.83;5.80;;;;;;;33.81;23.40;98542.50;5114241;28;20039;-50
2021/08/27 07:52:38;;;;;;;28.90;5.60;;;;;;;33.92;23.68;98534.50;5095934;28;20031;-50
2021/08/27 07:55:06;;;;;;;24.38;6.85;;;;;;;33.66;23.78;98543.34;5095860;28;20027;-51
2021/08/27 07:57:32;;;;;;;18.15;4.18;;;;;;;33.56;23.67;98544.66;5095843;28;20020;-50
2021/08/27 07:59:57;;;;;;;22.42;5.32;;;;;;;33.46;23.88;98540.56;5114341;28;20076;-51
2021/08/27 08:02:23;;;;;;;19.05;4.93;;;;;;;33.67;23.43;98539.47;5114278;28;20099;-51
2021/08/27 08:04:49;;;;;;;19.52;4.00;;;;;;;33.75;23.22;98541.19;5114001;28;20493;-50
2021/08/27 08:07:14;;;;;;;14.73;5.75;;;;;;;33.62;23.23;98545.97;5113974;28;20028;-50
2021/08/27 08:09:40;;;;;;;9.32;3.88;;;;;;;33.43;23.59;98552.97;5095588;28;20034;-50
2021/08/27 08:12:06;;;;;;;14.90;4.38;;;;;;;33.30;23.76;98548.78;5094980;28;20035;-48
2021/08/27 08:14:32;;;;;;;15.93;4.15;;;;;;;33.91;23.66;98546.56;5113586;28;20062;-48
2021/08/27 08:16:58;;;;;;;16.35;3.90;;;;;;;34.32;22.92;98539.56;5113784;28;20393;-48
2021/08/27 08:19:24;;;;;;;10.65;3.55;;;;;;;34.53;22.43;98550.06;5095428;28;20110;-49
2021/08/27 08:21:49;;;;;;;11.10;3.10;;;;;;;34.46;22.76;98554.59;5095418;28;20031;-48
2021/08/27 08:24:15;;;;;;;13.45;3.92;;;;;;;34.53;22.71;98546.53;5113605;28;20089;-48
2021/08/27 08:26:41;;;;;;;12.00;3.33;;;;;;;34.47;22.39;98556.97;5113676;28;20060;-48
2021/08/27 08:29:08;;;;;;;12.50;3.65;;;;;;;34.60;22.23;98550.16;5095461;28;20044;-48
2021/08/27 08:31:34;;;;;;;10.90;3.80;;;;;;;34.55;22.46;98555.13;5095240;28;20024;-48
2021/08/27 08:34:00;;;;;;;10.82;4.07;;;;;;;34.58;22.30;98557.13;5113436;28;20032;-48
2021/08/27 08:36:26;;;;;;;22.13;8.25;;;;;;;34.47;22.65;98551.50;5113486;28;20366;-48
2021/08/27 08:38:52;;;;;;;17.08;5.57;;;;;;;34.34;22.88;98550.09;5113412;28;20057;-48
2021/08/27 08:41:21;;;;;;;12.63;4.32;;;;;;;34.36;22.90;98545.06;5113216;28;20031;-48
2021/08/27 08:43:48;;;;;;;13.43;7.82;;;;;;;34.46;22.07;98558.09;5113250;28;20019;-48
2021/08/27 08:46:15;;;;;;;14.48;6.90;;;;;;;34.43;22.72;98553.38;5113305;28;20030;-48
2021/08/27 08:48:45;;;;;;;12.77;3.38;;;;;;;34.47;22.63;98548.78;5094913;28;20028;-49
2021/08/27 08:51:11;;;;;;;21.77;6.22;;;;;;;34.16;22.77;98545.13;5113170;28;20508;-48
2021/08/27 08:53:40;;;;;;;8.13;3.47;;;;;;;34.12;22.37;98554.34;5113333;28;20046;-48
2021/08/27 08:56:09;;;;;;;28.27;23.33;;;;;;;33.90;22.74;98553.16;5113187;28;20481;-48
2021/08/27 08:58:34;;;;;;;9.48;4.15;;;;;;;34.15;22.55;98546.28;5112989;28;20397;-48
2021/08/27 09:01:01;;;;;;;11.23;4.28;;;;;;;34.38;23.03;98548.22;5112938;28;20024;-49
2021/08/27 09:03:27;;;;;;;8.85;3.10;;;;;;;34.46;22.58;98557.31;5112947;28;20036;-48
2021/08/27 09:05:53;;;;;;;7.43;3.50;;;;;;;34.40;22.20;98549.44;5112746;28;20015;-48
2021/08/27 09:08:33;;;;;;;7.70;4.68;;;;;;;34.76;22.17;98543.81;5112776;28;20024;-48
2021/08/27 09:10:59;;;;;;;14.05;4.40;;;;;;;34.81;21.62;98552.50;5112898;28;20028;-48
2021/08/27 09:13:32;;;;;;;7.43;3.33;;;;;;;34.74;22.03;98546.13;5112393;28;20035;-48
2021/08/27 09:16:06;;;;;;;9.90;3.47;;;;;;;34.62;22.09;98549.81;5112491;28;20105;-48
2021/08/27 09:18:45;;;;;;;10.65;3.80;;;;;;;34.91;21.68;98539.38;5112625;28;20115;-48
2021/08/27 09:21:47;;;;;;;13.30;7.90;;;;;;;33.82;22.23;98536.66;5094339;28;20067;-48
2021/08/27 09:24:24;;;;;;;8.50;3.88;;;;;;;33.51;22.73;98550.41;5111624;28;20035;-48
2021/08/27 09:26:55;;;;;;;7.93;2.80;;;;;;;34.20;22.66;98539.72;5112548;28;20040;-48
2021/08/27 09:29:35;;;;;;;13.57;3.08;;;;;;;34.78;21.50;98527.88;5112578;28;20401;-48
2021/08/27 09:32:17;;;;;;;8.90;3.22;;;;;;;33.98;22.39;98543.97;5112444;28;20059;-48
2021/08/27 09:34:44;;;;;;;8.80;3.28;;;;;;;33.82;22.21;98542.09;5094233;28;20122;-48
2021/08/27 09:37:09;;;;;;;8.27;3.30;;;;;;;34.03;22.00;98541.75;5112325;28;20024;-48
2021/08/27 09:39:36;;;;;;;9.02;3.33;;;;;;;34.48;22.14;98541.38;5112334;28;20042;-48
2021/08/27 09:42:02;;;;;;;10.68;3.20;;;;;;;35.01;21.52;98533.28;5112238;28;20020;-48
2021/08/27 09:44:29;;;;;;;6.97;2.88;;;;;;;35.60;20.21;98528.25;5077161;28;20031;-48
2021/08/27 09:46:59;;;;;;;13.10;3.42;;;;;;;35.27;20.50;98537.19;5112261;28;20091;-48
2021/08/27 09:49:32;;;;;;;8.25;3.30;;;;;;;35.10;20.51;98536.53;5112553;28;20023;-48
2021/08/27 09:52:09;;;;;;;8.93;3.00;;;;;;;34.02;21.94;98526.53;5112171;28;20035;-48
2021/08/27 09:54:41;;;;;;;5.97;2.60;;;;;;;34.30;21.54;98530.19;5112143;28;20072;-48
2021/08/27 09:57:12;;;;;;;9.73;3.25;;;;;;;34.49;21.35;98529.31;5112189;28;20030;-48
2021/08/27 09:59:44;;;;;;;6.55;2.97;;;;;;;34.70;21.77;98529.72;5112135;28;20032;-48
2021/08/27 10:02:13;;;;;;;8.02;2.95;;;;;;;34.96;21.18;98528.16;5112098;28;20024;-49
2021/08/27 10:04:59;;;;;;;8.25;2.70;;;;;;;35.94;20.45;98531.00;5112033;28;20096;-50
2021/08/27 10:07:34;;;;;;;8.35;3.13;;;;;;;35.66;19.97;98529.53;5112350;28;20091;-51
2021/08/27 10:10:03;;;;;;;11.10;3.40;;;;;;;34.04;21.30;98534.34;5094709;28;20020;-48
2021/08/27 10:12:31;;;;;;;10.02;3.20;;;;;;;32.72;23.45;98537.69;5112016;28;20016;-48
2021/08/27 10:15:01;;;;;;;11.48;3.83;;;;;;;33.43;22.71;98527.69;5093497;28;20052;-48
2021/08/27 10:17:27;;;;;;;8.70;4.93;;;;;;;33.26;22.48;98525.38;5093724;28;20028;-48
2021/08/27 10:19:56;;;;;;;9.07;2.70;;;;;;;31.83;23.78;98534.19;5112178;28;20031;-50
2021/08/27 10:22:25;;;;;;;18.88;3.50;;;;;;;30.63;25.33;98531.72;5111949;28;20072;-50
2021/08/27 10:24:51;;;;;;;7.78;2.58;;;;;;;30.23;26.40;98532.31;5093553;28;20423;-50
2021/08/27 10:27:17;;;;;;;8.70;2.80;;;;;;;30.81;26.22;98520.69;5093576;28;20111;-49
2021/08/27 10:29:49;;;;;;;8.30;3.28;;;;;;;32.31;24.45;98520.75;5111904;28;20114;-50
2021/08/27 10:32:40;;;;;;;10.38;4.00;;;;;;;33.38;22.56;98514.34;5093578;28;20084;-51
2021/08/27 10:35:11;;;;;;;11.63;3.10;;;;;;;32.00;23.74;98519.56;5111919;28;20069;-49
2021/08/27 10:37:43;;;;;;;6.70;2.78;;;;;;;31.36;25.07;98521.22;5116030;28;20042;-50
2021/08/27 10:40:29;;;;;;;7.63;2.97;;;;;;;32.40;24.80;98524.09;5097347;28;20497;-50
2021/08/27 10:42:59;;;;;;;10.68;4.53;;;;;;;33.63;22.55;98518.41;5101541;28;20031;-50
2021/08/27 10:45:44;;;;;;;17.10;3.72;;;;;;;32.49;23.52;98519.28;5115809;28;20106;-50
2021/08/27 10:48:24;;;;;;;7.05;3.30;;;;;;;31.10;25.19;98525.09;5115406;28;20106;-50
2021/08/27 10:50:53;;;;;;;8.57;2.70;;;;;;;31.00;25.56;98522.84;5115382;28;20063;-49
2021/08/27 10:53:36;;;;;;;10.18;2.92;;;;;;;32.13;24.95;98517.56;5115446;28;20366;-50
2021/08/27 10:56:29;;;;;;;12.88;3.92;;;;;;;32.23;23.77;98504.25;5115400;28;20043;-50
2021/08/27 10:58:55;;;;;;;9.90;3.20;;;;;;;30.82;25.20;98506.00;5096832;28;20027;-50
2021/08/27 11:01:31;;;;;;;10.27;3.25;;;;;;;29.41;26.92;98508.47;5115278;28;20037;-50
2021/08/27 11:04:07;;;;;;;4.97;2.72;;;;;;;29.54;27.67;98505.84;5115213;28;20439;-49
2021/08/27 11:06:57;;;;;;;18.35;3.90;;;;;;;30.91;26.77;98503.19;5115232;28;20521;-50
2021/08/27 11:09:26;;;;;;;21.98;6.47;;;;;;;31.48;25.16;98496.78;5115089;28;20023;-50
2021/08/27 11:12:15;;;;;;;18.08;8.35;;;;;;;30.62;26.07;98496.84;5115026;28;20449;-50
2021/08/27 11:14:43;;;;;;;8.27;3.40;;;;;;;29.41;27.41;98513.88;5114871;28;20035;-50
2021/08/27 11:17:10;;;;;;;10.60;3.30;;;;;;;28.50;29.05;98505.31;5114927;28;20019;-50
2021/08/27 11:19:42;;;;;;;11.10;4.88;;;;;;;28.99;28.13;98504.91;5114998;28;20022;-49
2021/08/27 11:22:11;;;;;;;6.15;3.30;;;;;;;30.05;26.92;98493.78;5114891;28;20027;-50
2021/08/27 11:24:42;;;;;;;7.05;2.75;;;;;;;30.61;25.97;98493.34;5114789;28;20028;-50
2021/08/27 11:27:15;;;;;;;22.48;3.35;;;;;;;31.22;25.42;98503.38;5114746;28;20476;-50
2021/08/27 11:29:45;;;;;;;4.53;2.70;;;;;;;31.94;24.31;98493.78;5114723;28;20554;-50
2021/08/27 11:32:16;;;;;;;9.40;3.13;;;;;;;31.76;24.42;98494.09;5114681;28;20023;-50
2021/08/27 11:35:07;;;;;;;5.07;2.55;;;;;;;31.54;25.43;98500.06;5114627;28;20048;-50